sensor_id;sensor_type;location;lat;lon;timestamp;P1;durP1;ratioP1;P2;durP2;ratioP2
20185;SDS011;10252;48.792;8.582;2022-11-11T00:00:43;5.00;;;2.55;;
20185;SDS011;10252;48.792;8.582;2022-11-11T00:06:04;7.53;;;2.85;;
20185;SDS011;10252;48.792;8.582;2022-11-11T00:11:24;10.23;;;3.33;;
20185;SDS011;10252;48.792;8.582;2022-11-11T00:16:43;7.57;;;2.85;;
20185;SDS011;10252;48.792;8.582;2022-11-11T00:22:21;7.22;;;3.00;;
20185;SDS011;10252;48.792;8.582;2022-11-11T00:28:00;6.75;;;2.70;;
20185;SDS011;10252;48.792;8.582;2022-11-11T00:33:19;3.60;;;2.78;;
20185;SDS011;10252;48.792;8.582;2022-11-11T00:38:42;5.47;;;3.03;;
20185;SDS011;10252;48.792;8.582;2022-11-11T00:44:04;6.00;;;2.90;;
20185;SDS011;10252;48.792;8.582;2022-11-11T00:49:24;5.95;;;2.90;;
20185;SDS011;10252;48.792;8.582;2022-11-11T00:55:03;4.63;;;3.03;;
20185;SDS011;10252;48.792;8.582;2022-11-11T01:00:23;3.65;;;2.78;;
20185;SDS011;10252;48.792;8.582;2022-11-11T01:05:42;5.20;;;2.60;;
20185;SDS011;10252;48.792;8.582;2022-11-11T01:11:02;3.78;;;2.53;;
20185;SDS011;10252;48.792;8.582;2022-11-11T01:16:23;6.40;;;2.70;;
20185;SDS011;10252;48.792;8.582;2022-11-11T01:21:43;2.88;;;2.45;;
20185;SDS011;10252;48.792;8.582;2022-11-11T01:27:02;3.83;;;2.67;;
20185;SDS011;10252;48.792;8.582;2022-11-11T01:32:22;4.10;;;2.63;;
20185;SDS011;10252;48.792;8.582;2022-11-11T01:37:43;4.30;;;2.40;;
20185;SDS011;10252;48.792;8.582;2022-11-11T01:48:35;4.50;;;2.67;;
20185;SDS011;10252;48.792;8.582;2022-11-11T01:54:19;4.30;;;2.60;;
20185;SDS011;10252;48.792;8.582;2022-11-11T01:59:40;4.82;;;2.45;;
20185;SDS011;10252;48.792;8.582;2022-11-11T02:05:02;4.90;;;2.60;;
20185;SDS011;10252;48.792;8.582;2022-11-11T02:10:42;7.47;;;2.47;;
20185;SDS011;10252;48.792;8.582;2022-11-11T02:16:03;4.65;;;2.65;;
20185;SDS011;10252;48.792;8.582;2022-11-11T02:21:24;4.80;;;2.75;;
20185;SDS011;10252;48.792;8.582;2022-11-11T02:26:46;3.40;;;2.58;;
20185;SDS011;10252;48.792;8.582;2022-11-11T02:32:06;3.22;;;2.50;;
20185;SDS011;10252;48.792;8.582;2022-11-11T02:37:26;5.22;;;2.67;;
20185;SDS011;10252;48.792;8.582;2022-11-11T02:42:45;3.70;;;2.13;;
20185;SDS011;10252;48.792;8.582;2022-11-11T02:48:05;4.80;;;2.40;;
20185;SDS011;10252;48.792;8.582;2022-11-11T02:53:24;2.72;;;2.13;;
20185;SDS011;10252;48.792;8.582;2022-11-11T02:58:44;3.10;;;2.40;;
20185;SDS011;10252;48.792;8.582;2022-11-11T03:04:03;8.27;;;3.15;;
20185;SDS011;10252;48.792;8.582;2022-11-11T03:09:23;5.63;;;2.40;;
20185;SDS011;10252;48.792;8.582;2022-11-11T03:14:43;2.05;;;1.85;;
20185;SDS011;10252;48.792;8.582;2022-11-11T03:20:02;2.58;;;1.98;;
20185;SDS011;10252;48.792;8.582;2022-11-11T03:25:42;3.50;;;2.28;;
20185;SDS011;10252;48.792;8.582;2022-11-11T03:31:02;6.40;;;2.28;;
20185;SDS011;10252;48.792;8.582;2022-11-11T03:36:22;4.43;;;2.08;;
20185;SDS011;10252;48.792;8.582;2022-11-11T03:42:02;6.30;;;2.40;;
20185;SDS011;10252;48.792;8.582;2022-11-11T03:47:21;8.75;;;2.30;;
20185;SDS011;10252;48.792;8.582;2022-11-11T03:52:41;3.08;;;2.03;;
20185;SDS011;10252;48.792;8.582;2022-11-11T03:58:01;3.60;;;2.28;;
20185;SDS011;10252;48.792;8.582;2022-11-11T04:03:20;3.40;;;2.03;;
20185;SDS011;10252;48.792;8.582;2022-11-11T04:08:59;4.90;;;2.03;;
20185;SDS011;10252;48.792;8.582;2022-11-11T04:14:37;4.68;;;1.75;;
20185;SDS011;10252;48.792;8.582;2022-11-11T04:20:16;3.90;;;1.85;;
20185;SDS011;10252;48.792;8.582;2022-11-11T04:25:54;3.30;;;1.85;;
20185;SDS011;10252;48.792;8.582;2022-11-11T04:31:18;3.30;;;2.25;;
20185;SDS011;10252;48.792;8.582;2022-11-11T04:36:37;2.78;;;1.80;;
20185;SDS011;10252;48.792;8.582;2022-11-11T04:41:57;5.65;;;2.45;;
20185;SDS011;10252;48.792;8.582;2022-11-11T04:47:17;7.55;;;2.75;;
20185;SDS011;10252;48.792;8.582;2022-11-11T04:52:36;2.75;;;2.20;;
20185;SDS011;10252;48.792;8.582;2022-11-11T04:57:55;6.43;;;2.40;;
20185;SDS011;10252;48.792;8.582;2022-11-11T05:03:16;3.78;;;2.15;;
20185;SDS011;10252;48.792;8.582;2022-11-11T05:08:44;2.33;;;1.92;;
20185;SDS011;10252;48.792;8.582;2022-11-11T05:14:19;3.55;;;2.08;;
20185;SDS011;10252;48.792;8.582;2022-11-11T05:19:57;5.40;;;1.77;;
20185;SDS011;10252;48.792;8.582;2022-11-11T05:25:35;3.80;;;2.10;;
20185;SDS011;10252;48.792;8.582;2022-11-11T05:30:55;2.95;;;2.47;;
20185;SDS011;10252;48.792;8.582;2022-11-11T05:36:15;4.75;;;2.28;;
20185;SDS011;10252;48.792;8.582;2022-11-11T05:41:35;2.83;;;2.17;;
20185;SDS011;10252;48.792;8.582;2022-11-11T05:46:55;3.63;;;2.08;;
20185;SDS011;10252;48.792;8.582;2022-11-11T05:52:15;3.95;;;2.20;;
20185;SDS011;10252;48.792;8.582;2022-11-11T05:57:35;3.08;;;2.35;;
20185;SDS011;10252;48.792;8.582;2022-11-11T06:03:00;3.55;;;2.30;;
20185;SDS011;10252;48.792;8.582;2022-11-11T06:08:21;3.63;;;2.80;;
20185;SDS011;10252;48.792;8.582;2022-11-11T06:13:40;6.28;;;2.30;;
20185;SDS011;10252;48.792;8.582;2022-11-11T06:19:00;2.95;;;2.40;;
20185;SDS011;10252;48.792;8.582;2022-11-11T06:24:21;5.57;;;2.72;;
20185;SDS011;10252;48.792;8.582;2022-11-11T06:29:41;2.42;;;2.05;;
20185;SDS011;10252;48.792;8.582;2022-11-11T06:35:01;4.93;;;2.00;;
20185;SDS011;10252;48.792;8.582;2022-11-11T06:40:20;3.63;;;2.40;;
20185;SDS011;10252;48.792;8.582;2022-11-11T06:45:41;7.22;;;3.22;;
20185;SDS011;10252;48.792;8.582;2022-11-11T06:51:02;6.43;;;2.97;;
20185;SDS011;10252;48.792;8.582;2022-11-11T06:56:22;7.93;;;3.55;;
20185;SDS011;10252;48.792;8.582;2022-11-11T07:01:42;5.65;;;3.28;;
20185;SDS011;10252;48.792;8.582;2022-11-11T07:07:01;5.45;;;3.15;;
20185;SDS011;10252;48.792;8.582;2022-11-11T07:12:21;9.10;;;3.90;;
20185;SDS011;10252;48.792;8.582;2022-11-11T07:17:40;8.70;;;4.45;;
20185;SDS011;10252;48.792;8.582;2022-11-11T07:23:00;9.77;;;4.38;;
20185;SDS011;10252;48.792;8.582;2022-11-11T07:28:20;5.43;;;3.45;;
20185;SDS011;10252;48.792;8.582;2022-11-11T07:33:39;7.75;;;3.30;;
20185;SDS011;10252;48.792;8.582;2022-11-11T07:38:58;6.28;;;4.30;;
20185;SDS011;10252;48.792;8.582;2022-11-11T07:44:18;10.60;;;4.63;;
20185;SDS011;10252;48.792;8.582;2022-11-11T07:49:37;5.57;;;3.38;;
20185;SDS011;10252;48.792;8.582;2022-11-11T07:54:57;7.10;;;6.15;;
20185;SDS011;10252;48.792;8.582;2022-11-11T08:00:17;5.35;;;3.78;;
20185;SDS011;10252;48.792;8.582;2022-11-11T08:05:36;6.28;;;3.75;;
20185;SDS011;10252;48.792;8.582;2022-11-11T08:10:56;5.43;;;4.45;;
20185;SDS011;10252;48.792;8.582;2022-11-11T08:16:16;3.65;;;3.10;;
20185;SDS011;10252;48.792;8.582;2022-11-11T08:21:35;4.53;;;2.30;;
20185;SDS011;10252;48.792;8.582;2022-11-11T08:26:55;5.47;;;2.90;;
20185;SDS011;10252;48.792;8.582;2022-11-11T08:32:14;4.55;;;3.08;;
20185;SDS011;10252;48.792;8.582;2022-11-11T08:37:34;9.02;;;5.22;;
20185;SDS011;10252;48.792;8.582;2022-11-11T08:42:57;5.85;;;3.38;;
20185;SDS011;10252;48.792;8.582;2022-11-11T08:48:16;3.78;;;2.40;;
20185;SDS011;10252;48.792;8.582;2022-11-11T08:53:36;3.90;;;2.90;;
20185;SDS011;10252;48.792;8.582;2022-11-11T08:58:55;4.40;;;3.83;;
20185;SDS011;10252;48.792;8.582;2022-11-11T09:04:14;5.78;;;3.40;;
20185;SDS011;10252;48.792;8.582;2022-11-11T09:09:34;7.68;;;3.47;;
20185;SDS011;10252;48.792;8.582;2022-11-11T09:14:54;5.68;;;2.80;;
20185;SDS011;10252;48.792;8.582;2022-11-11T09:20:14;3.90;;;2.67;;
20185;SDS011;10252;48.792;8.582;2022-11-11T09:25:33;3.08;;;2.17;;
20185;SDS011;10252;48.792;8.582;2022-11-11T09:30:53;1.85;;;1.48;;
20185;SDS011;10252;48.792;8.582;2022-11-11T09:36:13;4.00;;;1.48;;
20185;SDS011;10252;48.792;8.582;2022-11-11T09:52:18;1.80;;;0.90;;
20185;SDS011;10252;48.792;8.582;2022-11-11T09:57:52;1.05;;;0.93;;
20185;SDS011;10252;48.792;8.582;2022-11-11T10:03:19;1.65;;;0.90;;
20185;SDS011;10252;48.792;8.582;2022-11-11T10:08:41;2.38;;;0.70;;
20185;SDS011;10252;48.792;8.582;2022-11-11T10:14:01;2.60;;;1.40;;
20185;SDS011;10252;48.792;8.582;2022-11-11T10:24:41;2.30;;;1.05;;
20185;SDS011;10252;48.792;8.582;2022-11-11T10:35:39;2.22;;;1.10;;
20185;SDS011;10252;48.792;8.582;2022-11-11T10:41:07;5.55;;;1.05;;
20185;SDS011;10252;48.792;8.582;2022-11-11T10:46:38;2.42;;;0.95;;
20185;SDS011;10252;48.792;8.582;2022-11-11T10:57:30;2.25;;;1.00;;
20185;SDS011;10252;48.792;8.582;2022-11-11T11:08:24;1.45;;;0.88;;
20185;SDS011;10252;48.792;8.582;2022-11-11T11:13:49;1.80;;;0.63;;
20185;SDS011;10252;48.792;8.582;2022-11-11T11:19:20;0.50;;;0.50;;
20185;SDS011;10252;48.792;8.582;2022-11-11T11:24:39;1.23;;;1.13;;
20185;SDS011;10252;48.792;8.582;2022-11-11T11:30:08;1.65;;;1.00;;
20185;SDS011;10252;48.792;8.582;2022-11-11T11:40:49;1.77;;;1.10;;
20185;SDS011;10252;48.792;8.582;2022-11-11T11:51:56;2.30;;;1.02;;
20185;SDS011;10252;48.792;8.582;2022-11-11T12:13:49;2.13;;;1.10;;
20185;SDS011;10252;48.792;8.582;2022-11-11T12:30:09;3.10;;;1.15;;
20185;SDS011;10252;48.792;8.582;2022-11-11T13:24:32;2.40;;;1.52;;
20185;SDS011;10252;48.792;8.582;2022-11-11T13:40:55;7.10;;;2.20;;
20185;SDS011;10252;48.792;8.582;2022-11-11T13:51:56;2.88;;;1.70;;
20185;SDS011;10252;48.792;8.582;2022-11-11T13:57:20;3.78;;;1.50;;
20185;SDS011;10252;48.792;8.582;2022-11-11T14:02:40;3.60;;;1.90;;
20185;SDS011;10252;48.792;8.582;2022-11-11T14:07:59;3.50;;;1.88;;
20185;SDS011;10252;48.792;8.582;2022-11-11T14:18:42;5.10;;;2.10;;
20185;SDS011;10252;48.792;8.582;2022-11-11T14:24:02;4.13;;;1.80;;
20185;SDS011;10252;48.792;8.582;2022-11-11T14:29:21;7.30;;;2.25;;
20185;SDS011;10252;48.792;8.582;2022-11-11T14:34:47;4.07;;;2.10;;
20185;SDS011;10252;48.792;8.582;2022-11-11T14:40:22;9.07;;;5.05;;
20185;SDS011;10252;48.792;8.582;2022-11-11T14:51:02;9.02;;;6.45;;
20185;SDS011;10252;48.792;8.582;2022-11-11T14:56:21;6.95;;;4.60;;
20185;SDS011;10252;48.792;8.582;2022-11-11T15:01:42;7.15;;;4.35;;
20185;SDS011;10252;48.792;8.582;2022-11-11T15:07:04;5.43;;;2.80;;
20185;SDS011;10252;48.792;8.582;2022-11-11T15:23:36;7.65;;;2.75;;
20185;SDS011;10252;48.792;8.582;2022-11-11T15:39:55;5.80;;;3.45;;
20185;SDS011;10252;48.792;8.582;2022-11-11T15:50:38;8.73;;;4.63;;
20185;SDS011;10252;48.792;8.582;2022-11-11T15:55:57;7.00;;;3.53;;
20185;SDS011;10252;48.792;8.582;2022-11-11T16:01:20;5.00;;;3.38;;
20185;SDS011;10252;48.792;8.582;2022-11-11T16:06:42;7.95;;;3.92;;
20185;SDS011;10252;48.792;8.582;2022-11-11T16:12:01;4.30;;;2.95;;
20185;SDS011;10252;48.792;8.582;2022-11-11T16:17:22;6.60;;;3.22;;
20185;SDS011;10252;48.792;8.582;2022-11-11T16:22:44;4.60;;;2.92;;
20185;SDS011;10252;48.792;8.582;2022-11-11T16:28:04;6.35;;;4.30;;
20185;SDS011;10252;48.792;8.582;2022-11-11T16:38:43;7.85;;;4.57;;
20185;SDS011;10252;48.792;8.582;2022-11-11T16:44:03;13.73;;;7.97;;
20185;SDS011;10252;48.792;8.582;2022-11-11T16:49:27;11.07;;;6.05;;
20185;SDS011;10252;48.792;8.582;2022-11-11T16:54:51;35.47;;;14.68;;
20185;SDS011;10252;48.792;8.582;2022-11-11T17:00:12;16.48;;;8.70;;
20185;SDS011;10252;48.792;8.582;2022-11-11T17:17:00;14.20;;;9.30;;
20185;SDS011;10252;48.792;8.582;2022-11-11T17:22:20;13.32;;;9.13;;
20185;SDS011;10252;48.792;8.582;2022-11-11T17:27:39;11.07;;;6.38;;
20185;SDS011;10252;48.792;8.582;2022-11-11T17:32:59;5.57;;;3.88;;
20185;SDS011;10252;48.792;8.582;2022-11-11T17:38:19;6.60;;;4.00;;
20185;SDS011;10252;48.792;8.582;2022-11-11T17:43:38;21.50;;;12.18;;
20185;SDS011;10252;48.792;8.582;2022-11-11T17:48:58;8.48;;;5.95;;
20185;SDS011;10252;48.792;8.582;2022-11-11T17:54:18;12.38;;;9.18;;
20185;SDS011;10252;48.792;8.582;2022-11-11T17:59:37;11.82;;;7.72;;
20185;SDS011;10252;48.792;8.582;2022-11-11T18:04:57;6.78;;;5.18;;
20185;SDS011;10252;48.792;8.582;2022-11-11T18:10:17;7.22;;;5.70;;
20185;SDS011;10252;48.792;8.582;2022-11-11T18:15:36;12.05;;;8.23;;
20185;SDS011;10252;48.792;8.582;2022-11-11T18:20:59;12.60;;;8.52;;
20185;SDS011;10252;48.792;8.582;2022-11-11T18:26:20;22.13;;;14.93;;
20185;SDS011;10252;48.792;8.582;2022-11-11T18:31:39;18.70;;;12.60;;
20185;SDS011;10252;48.792;8.582;2022-11-11T18:36:59;17.42;;;11.95;;
20185;SDS011;10252;48.792;8.582;2022-11-11T18:42:19;15.35;;;11.98;;
20185;SDS011;10252;48.792;8.582;2022-11-11T18:47:38;10.95;;;8.02;;
20185;SDS011;10252;48.792;8.582;2022-11-11T18:52:58;14.23;;;9.35;;
20185;SDS011;10252;48.792;8.582;2022-11-11T18:58:20;14.93;;;9.70;;
20185;SDS011;10252;48.792;8.582;2022-11-11T19:03:40;24.90;;;13.35;;
20185;SDS011;10252;48.792;8.582;2022-11-11T19:09:01;29.60;;;16.80;;
20185;SDS011;10252;48.792;8.582;2022-11-11T19:14:23;14.48;;;9.30;;
20185;SDS011;10252;48.792;8.582;2022-11-11T19:19:44;12.82;;;9.23;;
20185;SDS011;10252;48.792;8.582;2022-11-11T19:25:04;10.75;;;7.85;;
20185;SDS011;10252;48.792;8.582;2022-11-11T19:30:24;19.98;;;11.00;;
20185;SDS011;10252;48.792;8.582;2022-11-11T19:35:53;29.30;;;15.75;;
20185;SDS011;10252;48.792;8.582;2022-11-11T19:41:14;25.88;;;14.00;;
20185;SDS011;10252;48.792;8.582;2022-11-11T19:46:34;16.27;;;9.35;;
20185;SDS011;10252;48.792;8.582;2022-11-11T19:51:54;19.88;;;12.15;;
20185;SDS011;10252;48.792;8.582;2022-11-11T19:57:14;20.17;;;11.63;;
20185;SDS011;10252;48.792;8.582;2022-11-11T20:02:33;11.73;;;8.10;;
20185;SDS011;10252;48.792;8.582;2022-11-11T20:07:53;14.68;;;8.88;;
20185;SDS011;10252;48.792;8.582;2022-11-11T20:13:13;15.00;;;9.60;;
20185;SDS011;10252;48.792;8.582;2022-11-11T20:18:33;14.10;;;9.90;;
20185;SDS011;10252;48.792;8.582;2022-11-11T20:23:53;19.98;;;10.50;;
20185;SDS011;10252;48.792;8.582;2022-11-11T20:29:13;21.00;;;10.65;;
20185;SDS011;10252;48.792;8.582;2022-11-11T20:34:33;23.95;;;10.82;;
20185;SDS011;10252;48.792;8.582;2022-11-11T20:39:53;18.42;;;10.38;;
20185;SDS011;10252;48.792;8.582;2022-11-11T20:45:12;14.27;;;8.18;;
20185;SDS011;10252;48.792;8.582;2022-11-11T20:50:32;12.13;;;7.32;;
20185;SDS011;10252;48.792;8.582;2022-11-11T20:55:52;8.95;;;7.05;;
20185;SDS011;10252;48.792;8.582;2022-11-11T21:01:12;10.60;;;7.72;;
20185;SDS011;10252;48.792;8.582;2022-11-11T21:06:32;8.65;;;6.22;;
20185;SDS011;10252;48.792;8.582;2022-11-11T21:11:53;9.35;;;6.38;;
20185;SDS011;10252;48.792;8.582;2022-11-11T21:17:12;9.60;;;6.90;;
20185;SDS011;10252;48.792;8.582;2022-11-11T21:22:32;9.50;;;6.80;;
20185;SDS011;10252;48.792;8.582;2022-11-11T21:27:51;13.02;;;8.77;;
20185;SDS011;10252;48.792;8.582;2022-11-11T21:33:11;10.73;;;7.82;;
20185;SDS011;10252;48.792;8.582;2022-11-11T21:38:31;10.32;;;7.93;;
20185;SDS011;10252;48.792;8.582;2022-11-11T21:43:51;10.57;;;8.05;;
20185;SDS011;10252;48.792;8.582;2022-11-11T21:49:11;10.70;;;8.05;;
20185;SDS011;10252;48.792;8.582;2022-11-11T21:54:31;8.50;;;6.30;;
20185;SDS011;10252;48.792;8.582;2022-11-11T21:59:50;11.55;;;6.95;;
20185;SDS011;10252;48.792;8.582;2022-11-11T22:05:10;7.95;;;5.22;;
20185;SDS011;10252;48.792;8.582;2022-11-11T22:10:30;8.02;;;5.93;;
20185;SDS011;10252;48.792;8.582;2022-11-11T22:15:56;12.30;;;7.90;;
20185;SDS011;10252;48.792;8.582;2022-11-11T22:21:16;7.72;;;5.78;;
20185;SDS011;10252;48.792;8.582;2022-11-11T22:26:39;7.78;;;5.30;;
20185;SDS011;10252;48.792;8.582;2022-11-11T22:31:59;8.98;;;5.47;;
20185;SDS011;10252;48.792;8.582;2022-11-11T22:37:18;9.13;;;6.03;;
20185;SDS011;10252;48.792;8.582;2022-11-11T22:42:39;10.23;;;6.88;;
20185;SDS011;10252;48.792;8.582;2022-11-11T22:47:58;8.82;;;6.18;;
20185;SDS011;10252;48.792;8.582;2022-11-11T22:53:18;9.55;;;6.72;;
20185;SDS011;10252;48.792;8.582;2022-11-11T22:58:38;10.20;;;6.35;;
20185;SDS011;10252;48.792;8.582;2022-11-11T23:03:59;7.93;;;5.75;;
20185;SDS011;10252;48.792;8.582;2022-11-11T23:09:19;11.40;;;5.45;;
20185;SDS011;10252;48.792;8.582;2022-11-11T23:14:38;7.90;;;5.50;;
20185;SDS011;10252;48.792;8.582;2022-11-11T23:19:58;7.68;;;5.78;;
20185;SDS011;10252;48.792;8.582;2022-11-11T23:25:18;8.10;;;5.15;;
20185;SDS011;10252;48.792;8.582;2022-11-11T23:30:37;7.97;;;4.55;;
20185;SDS011;10252;48.792;8.582;2022-11-11T23:36:04;7.00;;;4.80;;
20185;SDS011;10252;48.792;8.582;2022-11-11T23:41:24;7.05;;;4.78;;
20185;SDS011;10252;48.792;8.582;2022-11-11T23:46:43;7.20;;;4.85;;
20185;SDS011;10252;48.792;8.582;2022-11-11T23:52:03;7.50;;;4.70;;
20185;SDS011;10252;48.792;8.582;2022-11-11T23:57:23;11.90;;;5.40;;
